sensor_id;sensor_type;location;lat;lon;timestamp;P1;durP1;ratioP1;P2;durP2;ratioP2
22107;SDS011;11220;48.812;9.128;2024-03-07T00:00:04;0.40;;;0.30;;
22107;SDS011;11220;48.812;9.128;2024-03-07T00:02:39;0.30;;;0.30;;
22107;SDS011;11220;48.812;9.128;2024-03-07T00:05:18;0.40;;;0.40;;
22107;SDS011;11220;48.812;9.128;2024-03-07T00:07:44;0.30;;;0.30;;
22107;SDS011;11220;48.812;9.128;2024-03-07T00:10:12;0.47;;;0.40;;
22107;SDS011;11220;48.812;9.128;2024-03-07T00:12:40;0.57;;;0.30;;
22107;SDS011;11220;48.812;9.128;2024-03-07T00:15:09;0.40;;;0.40;;
22107;SDS011;11220;48.812;9.128;2024-03-07T00:17:36;0.30;;;0.30;;
22107;SDS011;11220;48.812;9.128;2024-03-07T00:20:02;0.25;;;0.25;;
22107;SDS011;11220;48.812;9.128;2024-03-07T00:22:30;0.20;;;0.20;;
22107;SDS011;11220;48.812;9.128;2024-03-07T00:24:56;0.28;;;0.25;;
22107;SDS011;11220;48.812;9.128;2024-03-07T00:27:22;0.32;;;0.30;;
22107;SDS011;11220;48.812;9.128;2024-03-07T00:29:48;0.40;;;0.30;;
22107;SDS011;11220;48.812;9.128;2024-03-07T00:32:21;0.32;;;0.30;;
22107;SDS011;11220;48.812;9.128;2024-03-07T00:34:47;0.43;;;0.43;;
22107;SDS011;11220;48.812;9.128;2024-03-07T00:37:13;0.40;;;0.30;;
22107;SDS011;11220;48.812;9.128;2024-03-07T00:39:39;0.30;;;0.30;;
22107;SDS011;11220;48.812;9.128;2024-03-07T00:42:05;0.40;;;0.30;;
22107;SDS011;11220;48.812;9.128;2024-03-07T00:44:31;0.30;;;0.30;;
22107;SDS011;11220;48.812;9.128;2024-03-07T00:46:56;0.95;;;0.40;;
22107;SDS011;11220;48.812;9.128;2024-03-07T00:49:22;0.38;;;0.30;;
22107;SDS011;11220;48.812;9.128;2024-03-07T00:51:48;0.28;;;0.25;;
22107;SDS011;11220;48.812;9.128;2024-03-07T00:54:14;0.70;;;0.40;;
22107;SDS011;11220;48.812;9.128;2024-03-07T00:56:39;0.30;;;0.30;;
22107;SDS011;11220;48.812;9.128;2024-03-07T00:59:05;0.40;;;0.40;;
22107;SDS011;11220;48.812;9.128;2024-03-07T01:01:31;0.40;;;0.30;;
22107;SDS011;11220;48.812;9.128;2024-03-07T01:03:58;0.50;;;0.50;;
22107;SDS011;11220;48.812;9.128;2024-03-07T01:06:25;0.40;;;0.40;;
22107;SDS011;11220;48.812;9.128;2024-03-07T01:08:50;0.32;;;0.30;;
22107;SDS011;11220;48.812;9.128;2024-03-07T01:11:16;0.40;;;0.30;;
22107;SDS011;11220;48.812;9.128;2024-03-07T01:13:42;0.50;;;0.40;;
22107;SDS011;11220;48.812;9.128;2024-03-07T01:16:08;0.50;;;0.40;;
22107;SDS011;11220;48.812;9.128;2024-03-07T01:18:34;0.60;;;0.40;;
22107;SDS011;11220;48.812;9.128;2024-03-07T01:21:02;0.50;;;0.43;;
22107;SDS011;11220;48.812;9.128;2024-03-07T01:23:30;0.38;;;0.38;;
22107;SDS011;11220;48.812;9.128;2024-03-07T01:25:56;0.47;;;0.40;;
22107;SDS011;11220;48.812;9.128;2024-03-07T01:28:23;0.40;;;0.40;;
22107;SDS011;11220;48.812;9.128;2024-03-07T01:30:55;0.70;;;0.70;;
22107;SDS011;11220;48.812;9.128;2024-03-07T01:33:21;0.30;;;0.30;;
22107;SDS011;11220;48.812;9.128;2024-03-07T01:35:47;0.40;;;0.40;;
22107;SDS011;11220;48.812;9.128;2024-03-07T01:38:13;0.40;;;0.40;;
22107;SDS011;11220;48.812;9.128;2024-03-07T01:40:39;0.60;;;0.50;;
22107;SDS011;11220;48.812;9.128;2024-03-07T01:43:06;0.57;;;0.50;;
22107;SDS011;11220;48.812;9.128;2024-03-07T01:45:32;0.40;;;0.40;;
22107;SDS011;11220;48.812;9.128;2024-03-07T01:47:57;0.55;;;0.50;;
22107;SDS011;11220;48.812;9.128;2024-03-07T01:50:23;0.50;;;0.50;;
22107;SDS011;11220;48.812;9.128;2024-03-07T01:52:49;0.50;;;0.50;;
22107;SDS011;11220;48.812;9.128;2024-03-07T01:55:20;0.70;;;0.60;;
22107;SDS011;11220;48.812;9.128;2024-03-07T01:57:49;0.47;;;0.47;;
22107;SDS011;11220;48.812;9.128;2024-03-07T02:00:15;0.35;;;0.35;;
22107;SDS011;11220;48.812;9.128;2024-03-07T02:02:42;0.50;;;0.40;;
22107;SDS011;11220;48.812;9.128;2024-03-07T02:05:09;0.63;;;0.47;;
22107;SDS011;11220;48.812;9.128;2024-03-07T02:07:35;0.60;;;0.57;;
22107;SDS011;11220;48.812;9.128;2024-03-07T02:10:04;0.50;;;0.50;;
22107;SDS011;11220;48.812;9.128;2024-03-07T02:12:31;0.40;;;0.40;;
22107;SDS011;11220;48.812;9.128;2024-03-07T02:14:57;0.65;;;0.65;;
22107;SDS011;11220;48.812;9.128;2024-03-07T02:17:26;0.60;;;0.60;;
22107;SDS011;11220;48.812;9.128;2024-03-07T02:19:52;0.53;;;0.50;;
22107;SDS011;11220;48.812;9.128;2024-03-07T02:22:18;0.60;;;0.55;;
22107;SDS011;11220;48.812;9.128;2024-03-07T02:24:44;0.93;;;0.60;;
22107;SDS011;11220;48.812;9.128;2024-03-07T02:27:10;0.93;;;0.70;;
22107;SDS011;11220;48.812;9.128;2024-03-07T02:29:36;0.60;;;0.60;;
22107;SDS011;11220;48.812;9.128;2024-03-07T02:32:02;0.60;;;0.60;;
22107;SDS011;11220;48.812;9.128;2024-03-07T02:34:27;0.60;;;0.60;;
22107;SDS011;11220;48.812;9.128;2024-03-07T02:36:53;1.00;;;0.80;;
22107;SDS011;11220;48.812;9.128;2024-03-07T02:39:19;0.80;;;0.60;;
22107;SDS011;11220;48.812;9.128;2024-03-07T02:41:45;1.05;;;0.75;;
22107;SDS011;11220;48.812;9.128;2024-03-07T02:44:12;0.82;;;0.50;;
22107;SDS011;11220;48.812;9.128;2024-03-07T02:46:39;0.52;;;0.52;;
22107;SDS011;11220;48.812;9.128;2024-03-07T02:49:05;0.60;;;0.60;;
22107;SDS011;11220;48.812;9.128;2024-03-07T02:51:30;0.80;;;0.80;;
22107;SDS011;11220;48.812;9.128;2024-03-07T02:53:56;0.63;;;0.63;;
22107;SDS011;11220;48.812;9.128;2024-03-07T02:56:22;0.73;;;0.68;;
22107;SDS011;11220;48.812;9.128;2024-03-07T02:58:48;0.60;;;0.60;;
22107;SDS011;11220;48.812;9.128;2024-03-07T03:01:14;0.90;;;0.77;;
22107;SDS011;11220;48.812;9.128;2024-03-07T03:03:39;0.85;;;0.73;;
22107;SDS011;11220;48.812;9.128;2024-03-07T03:06:07;0.60;;;0.60;;
22107;SDS011;11220;48.812;9.128;2024-03-07T03:08:33;0.80;;;0.80;;
22107;SDS011;11220;48.812;9.128;2024-03-07T03:10:59;0.80;;;0.80;;
22107;SDS011;11220;48.812;9.128;2024-03-07T03:13:25;0.70;;;0.70;;
22107;SDS011;11220;48.812;9.128;2024-03-07T03:15:54;0.85;;;0.85;;
22107;SDS011;11220;48.812;9.128;2024-03-07T03:18:23;0.90;;;0.70;;
22107;SDS011;11220;48.812;9.128;2024-03-07T03:20:49;0.70;;;0.68;;
22107;SDS011;11220;48.812;9.128;2024-03-07T03:23:15;0.70;;;0.70;;
22107;SDS011;11220;48.812;9.128;2024-03-07T03:25:41;0.70;;;0.70;;
22107;SDS011;11220;48.812;9.128;2024-03-07T03:28:07;1.00;;;0.70;;
22107;SDS011;11220;48.812;9.128;2024-03-07T03:30:39;0.75;;;0.75;;
22107;SDS011;11220;48.812;9.128;2024-03-07T03:33:06;1.27;;;0.93;;
22107;SDS011;11220;48.812;9.128;2024-03-07T03:35:33;0.80;;;0.80;;
22107;SDS011;11220;48.812;9.128;2024-03-07T03:37:59;0.70;;;0.70;;
22107;SDS011;11220;48.812;9.128;2024-03-07T03:40:25;1.10;;;1.00;;
22107;SDS011;11220;48.812;9.128;2024-03-07T03:42:51;0.70;;;0.70;;
22107;SDS011;11220;48.812;9.128;2024-03-07T03:45:16;1.17;;;0.80;;
22107;SDS011;11220;48.812;9.128;2024-03-07T03:47:43;1.30;;;0.90;;
22107;SDS011;11220;48.812;9.128;2024-03-07T03:50:12;1.13;;;1.00;;
22107;SDS011;11220;48.812;9.128;2024-03-07T03:52:39;0.80;;;0.80;;
22107;SDS011;11220;48.812;9.128;2024-03-07T03:55:06;0.85;;;0.68;;
22107;SDS011;11220;48.812;9.128;2024-03-07T03:57:32;1.30;;;0.90;;
22107;SDS011;11220;48.812;9.128;2024-03-07T03:59:58;0.90;;;0.73;;
22107;SDS011;11220;48.812;9.128;2024-03-07T04:02:24;1.15;;;1.00;;
22107;SDS011;11220;48.812;9.128;2024-03-07T04:04:50;0.80;;;0.70;;
22107;SDS011;11220;48.812;9.128;2024-03-07T04:07:17;0.75;;;0.75;;
22107;SDS011;11220;48.812;9.128;2024-03-07T04:09:44;0.90;;;0.80;;
22107;SDS011;11220;48.812;9.128;2024-03-07T04:12:10;0.80;;;0.80;;
22107;SDS011;11220;48.812;9.128;2024-03-07T04:14:40;0.95;;;0.90;;
22107;SDS011;11220;48.812;9.128;2024-03-07T04:17:06;0.93;;;0.85;;
22107;SDS011;11220;48.812;9.128;2024-03-07T04:19:34;1.17;;;1.08;;
22107;SDS011;11220;48.812;9.128;2024-03-07T04:22:00;1.00;;;0.90;;
22107;SDS011;11220;48.812;9.128;2024-03-07T04:24:28;1.00;;;0.90;;
22107;SDS011;11220;48.812;9.128;2024-03-07T04:26:54;0.90;;;0.90;;
22107;SDS011;11220;48.812;9.128;2024-03-07T04:29:20;1.20;;;1.10;;
22107;SDS011;11220;48.812;9.128;2024-03-07T04:31:45;1.00;;;0.90;;
22107;SDS011;11220;48.812;9.128;2024-03-07T04:34:11;1.13;;;0.90;;
22107;SDS011;11220;48.812;9.128;2024-03-07T04:36:36;1.15;;;1.00;;
22107;SDS011;11220;48.812;9.128;2024-03-07T04:39:02;1.10;;;1.00;;
22107;SDS011;11220;48.812;9.128;2024-03-07T04:41:29;0.80;;;0.80;;
22107;SDS011;11220;48.812;9.128;2024-03-07T04:43:55;0.80;;;0.80;;
22107;SDS011;11220;48.812;9.128;2024-03-07T04:46:20;1.02;;;0.98;;
22107;SDS011;11220;48.812;9.128;2024-03-07T04:48:45;1.35;;;1.08;;
22107;SDS011;11220;48.812;9.128;2024-03-07T04:51:11;1.10;;;1.00;;
22107;SDS011;11220;48.812;9.128;2024-03-07T04:53:37;1.10;;;1.00;;
22107;SDS011;11220;48.812;9.128;2024-03-07T04:56:07;1.23;;;1.00;;
22107;SDS011;11220;48.812;9.128;2024-03-07T04:58:34;0.98;;;0.80;;
22107;SDS011;11220;48.812;9.128;2024-03-07T05:01:00;1.10;;;0.98;;
22107;SDS011;11220;48.812;9.128;2024-03-07T05:03:27;1.52;;;1.10;;
22107;SDS011;11220;48.812;9.128;2024-03-07T05:05:53;0.90;;;0.90;;
22107;SDS011;11220;48.812;9.128;2024-03-07T05:08:22;1.33;;;1.23;;
22107;SDS011;11220;48.812;9.128;2024-03-07T05:10:47;1.10;;;1.00;;
22107;SDS011;11220;48.812;9.128;2024-03-07T05:13:13;1.08;;;0.95;;
22107;SDS011;11220;48.812;9.128;2024-03-07T05:15:38;0.80;;;0.80;;
22107;SDS011;11220;48.812;9.128;2024-03-07T05:18:04;1.38;;;1.17;;
22107;SDS011;11220;48.812;9.128;2024-03-07T05:20:30;1.40;;;0.93;;
22107;SDS011;11220;48.812;9.128;2024-03-07T05:22:56;1.55;;;1.27;;
22107;SDS011;11220;48.812;9.128;2024-03-07T05:25:23;1.20;;;1.10;;
22107;SDS011;11220;48.812;9.128;2024-03-07T05:27:49;1.20;;;1.10;;
22107;SDS011;11220;48.812;9.128;2024-03-07T05:30:15;1.20;;;1.10;;
22107;SDS011;11220;48.812;9.128;2024-03-07T05:32:42;1.08;;;0.90;;
22107;SDS011;11220;48.812;9.128;2024-03-07T05:35:08;0.93;;;0.90;;
22107;SDS011;11220;48.812;9.128;2024-03-07T05:37:34;1.20;;;1.10;;
22107;SDS011;11220;48.812;9.128;2024-03-07T05:39:59;1.10;;;1.00;;
22107;SDS011;11220;48.812;9.128;2024-03-07T05:42:25;0.85;;;0.85;;
22107;SDS011;11220;48.812;9.128;2024-03-07T05:44:51;1.17;;;1.02;;
22107;SDS011;11220;48.812;9.128;2024-03-07T05:47:16;1.02;;;0.93;;
22107;SDS011;11220;48.812;9.128;2024-03-07T05:49:42;1.10;;;1.00;;
22107;SDS011;11220;48.812;9.128;2024-03-07T05:52:08;1.00;;;1.00;;
22107;SDS011;11220;48.812;9.128;2024-03-07T05:54:34;1.00;;;0.90;;
22107;SDS011;11220;48.812;9.128;2024-03-07T05:57:00;1.10;;;0.98;;
22107;SDS011;11220;48.812;9.128;2024-03-07T05:59:26;1.38;;;1.15;;
22107;SDS011;11220;48.812;9.128;2024-03-07T06:04:22;0.98;;;0.80;;
22107;SDS011;11220;48.812;9.128;2024-03-07T06:06:48;0.90;;;0.90;;
22107;SDS011;11220;48.812;9.128;2024-03-07T06:09:13;1.13;;;0.95;;
22107;SDS011;11220;48.812;9.128;2024-03-07T06:11:40;1.25;;;0.82;;
22107;SDS011;11220;48.812;9.128;2024-03-07T06:14:07;1.05;;;0.95;;
22107;SDS011;11220;48.812;9.128;2024-03-07T06:16:35;1.00;;;0.80;;
22107;SDS011;11220;48.812;9.128;2024-03-07T06:19:01;0.80;;;0.80;;
22107;SDS011;11220;48.812;9.128;2024-03-07T06:21:28;0.70;;;0.70;;
22107;SDS011;11220;48.812;9.128;2024-03-07T06:23:57;1.00;;;0.90;;
22107;SDS011;11220;48.812;9.128;2024-03-07T06:26:26;1.08;;;0.93;;
22107;SDS011;11220;48.812;9.128;2024-03-07T06:29:02;0.70;;;0.70;;
22107;SDS011;11220;48.812;9.128;2024-03-07T06:31:30;0.80;;;0.75;;
22107;SDS011;11220;48.812;9.128;2024-03-07T06:33:56;1.13;;;0.85;;
22107;SDS011;11220;48.812;9.128;2024-03-07T06:36:22;0.93;;;0.82;;
22107;SDS011;11220;48.812;9.128;2024-03-07T06:38:47;0.60;;;0.60;;
22107;SDS011;11220;48.812;9.128;2024-03-07T06:41:14;0.95;;;0.80;;
22107;SDS011;11220;48.812;9.128;2024-03-07T06:43:39;1.00;;;0.80;;
22107;SDS011;11220;48.812;9.128;2024-03-07T06:46:05;1.13;;;0.85;;
22107;SDS011;11220;48.812;9.128;2024-03-07T06:48:31;0.65;;;0.57;;
22107;SDS011;11220;48.812;9.128;2024-03-07T06:50:57;0.90;;;0.73;;
22107;SDS011;11220;48.812;9.128;2024-03-07T06:53:22;1.02;;;0.80;;
22107;SDS011;11220;48.812;9.128;2024-03-07T06:55:51;0.60;;;0.60;;
22107;SDS011;11220;48.812;9.128;2024-03-07T06:58:18;0.50;;;0.50;;
22107;SDS011;11220;48.812;9.128;2024-03-07T07:00:47;0.60;;;0.60;;
22107;SDS011;11220;48.812;9.128;2024-03-07T07:03:16;0.65;;;0.60;;
22107;SDS011;11220;48.812;9.128;2024-03-07T07:05:45;0.60;;;0.60;;
22107;SDS011;11220;48.812;9.128;2024-03-07T07:08:11;0.70;;;0.70;;
22107;SDS011;11220;48.812;9.128;2024-03-07T07:10:40;0.50;;;0.50;;
22107;SDS011;11220;48.812;9.128;2024-03-07T07:13:07;0.60;;;0.60;;
22107;SDS011;11220;48.812;9.128;2024-03-07T07:15:33;0.90;;;0.63;;
22107;SDS011;11220;48.812;9.128;2024-03-07T07:17:59;0.93;;;0.60;;
22107;SDS011;11220;48.812;9.128;2024-03-07T07:20:27;1.00;;;0.90;;
22107;SDS011;11220;48.812;9.128;2024-03-07T07:22:52;0.93;;;0.70;;
22107;SDS011;11220;48.812;9.128;2024-03-07T07:25:18;0.60;;;0.60;;
22107;SDS011;11220;48.812;9.128;2024-03-07T07:27:51;0.77;;;0.77;;
22107;SDS011;11220;48.812;9.128;2024-03-07T07:30:18;1.35;;;1.20;;
22107;SDS011;11220;48.812;9.128;2024-03-07T07:32:47;1.50;;;0.98;;
22107;SDS011;11220;48.812;9.128;2024-03-07T07:35:13;1.20;;;1.10;;
22107;SDS011;11220;48.812;9.128;2024-03-07T07:37:42;1.75;;;1.02;;
22107;SDS011;11220;48.812;9.128;2024-03-07T07:40:13;1.27;;;0.82;;
22107;SDS011;11220;48.812;9.128;2024-03-07T07:42:43;1.05;;;0.90;;
22107;SDS011;11220;48.812;9.128;2024-03-07T07:45:11;1.15;;;0.82;;
22107;SDS011;11220;48.812;9.128;2024-03-07T07:47:44;1.08;;;0.77;;
22107;SDS011;11220;48.812;9.128;2024-03-07T07:50:12;0.93;;;0.90;;
22107;SDS011;11220;48.812;9.128;2024-03-07T07:52:42;0.80;;;0.80;;
22107;SDS011;11220;48.812;9.128;2024-03-07T07:55:10;0.52;;;0.52;;
22107;SDS011;11220;48.812;9.128;2024-03-07T07:57:40;0.60;;;0.60;;
22107;SDS011;11220;48.812;9.128;2024-03-07T08:00:07;0.80;;;0.80;;
22107;SDS011;11220;48.812;9.128;2024-03-07T08:02:34;0.80;;;0.80;;
22107;SDS011;11220;48.812;9.128;2024-03-07T08:05:00;0.63;;;0.63;;
22107;SDS011;11220;48.812;9.128;2024-03-07T08:07:26;0.98;;;0.75;;
22107;SDS011;11220;48.812;9.128;2024-03-07T08:09:51;0.98;;;0.70;;
22107;SDS011;11220;48.812;9.128;2024-03-07T08:12:17;0.70;;;0.70;;
22107;SDS011;11220;48.812;9.128;2024-03-07T08:14:42;1.05;;;0.80;;
22107;SDS011;11220;48.812;9.128;2024-03-07T08:17:09;0.85;;;0.75;;
22107;SDS011;11220;48.812;9.128;2024-03-07T08:19:36;0.82;;;0.82;;
22107;SDS011;11220;48.812;9.128;2024-03-07T08:22:01;0.70;;;0.70;;
22107;SDS011;11220;48.812;9.128;2024-03-07T08:24:27;0.73;;;0.70;;
22107;SDS011;11220;48.812;9.128;2024-03-07T08:26:53;0.77;;;0.63;;
22107;SDS011;11220;48.812;9.128;2024-03-07T08:29:18;0.60;;;0.60;;
22107;SDS011;11220;48.812;9.128;2024-03-07T08:31:44;0.70;;;0.70;;
22107;SDS011;11220;48.812;9.128;2024-03-07T08:34:09;0.98;;;0.70;;
22107;SDS011;11220;48.812;9.128;2024-03-07T08:36:35;0.90;;;0.82;;
22107;SDS011;11220;48.812;9.128;2024-03-07T08:39:01;0.60;;;0.60;;
22107;SDS011;11220;48.812;9.128;2024-03-07T08:41:29;0.80;;;0.70;;
22107;SDS011;11220;48.812;9.128;2024-03-07T08:43:56;0.88;;;0.80;;
22107;SDS011;11220;48.812;9.128;2024-03-07T08:46:22;0.70;;;0.70;;
22107;SDS011;11220;48.812;9.128;2024-03-07T08:48:47;0.60;;;0.60;;
22107;SDS011;11220;48.812;9.128;2024-03-07T08:51:13;0.80;;;0.70;;
22107;SDS011;11220;48.812;9.128;2024-03-07T08:53:40;0.77;;;0.60;;
22107;SDS011;11220;48.812;9.128;2024-03-07T08:56:06;0.88;;;0.88;;
22107;SDS011;11220;48.812;9.128;2024-03-07T08:58:31;0.90;;;0.60;;
22107;SDS011;11220;48.812;9.128;2024-03-07T09:00:57;1.05;;;0.88;;
22107;SDS011;11220;48.812;9.128;2024-03-07T09:03:23;1.35;;;0.88;;
22107;SDS011;11220;48.812;9.128;2024-03-07T09:05:50;0.70;;;0.70;;
22107;SDS011;11220;48.812;9.128;2024-03-07T09:08:17;1.50;;;0.80;;
22107;SDS011;11220;48.812;9.128;2024-03-07T09:10:42;0.77;;;0.77;;
22107;SDS011;11220;48.812;9.128;2024-03-07T09:13:09;1.27;;;0.82;;
22107;SDS011;11220;48.812;9.128;2024-03-07T09:15:34;0.73;;;0.73;;
22107;SDS011;11220;48.812;9.128;2024-03-07T09:18:02;0.90;;;0.75;;
22107;SDS011;11220;48.812;9.128;2024-03-07T09:20:28;1.02;;;0.98;;
22107;SDS011;11220;48.812;9.128;2024-03-07T09:22:54;0.93;;;0.82;;
22107;SDS011;11220;48.812;9.128;2024-03-07T09:25:19;0.77;;;0.77;;
22107;SDS011;11220;48.812;9.128;2024-03-07T09:27:45;0.88;;;0.80;;
22107;SDS011;11220;48.812;9.128;2024-03-07T09:30:11;0.93;;;0.93;;
22107;SDS011;11220;48.812;9.128;2024-03-07T09:32:40;1.45;;;0.98;;
22107;SDS011;11220;48.812;9.128;2024-03-07T09:35:09;0.90;;;0.88;;
22107;SDS011;11220;48.812;9.128;2024-03-07T09:37:42;0.80;;;0.80;;
22107;SDS011;11220;48.812;9.128;2024-03-07T09:42:37;1.17;;;1.08;;
22107;SDS011;11220;48.812;9.128;2024-03-07T09:45:13;0.75;;;0.73;;
22107;SDS011;11220;48.812;9.128;2024-03-07T09:47:41;1.08;;;0.98;;
22107;SDS011;11220;48.812;9.128;2024-03-07T09:50:09;1.20;;;1.08;;
22107;SDS011;11220;48.812;9.128;2024-03-07T09:52:35;1.00;;;0.90;;
22107;SDS011;11220;48.812;9.128;2024-03-07T09:55:00;1.33;;;1.08;;
22107;SDS011;11220;48.812;9.128;2024-03-07T09:57:27;1.27;;;0.80;;
22107;SDS011;11220;48.812;9.128;2024-03-07T09:59:54;0.70;;;0.68;;
22107;SDS011;11220;48.812;9.128;2024-03-07T10:02:20;0.75;;;0.70;;
22107;SDS011;11220;48.812;9.128;2024-03-07T10:04:49;0.90;;;0.82;;
22107;SDS011;11220;48.812;9.128;2024-03-07T10:07:18;1.00;;;0.90;;
22107;SDS011;11220;48.812;9.128;2024-03-07T10:09:44;1.10;;;0.90;;
22107;SDS011;11220;48.812;9.128;2024-03-07T10:12:10;0.80;;;0.77;;
22107;SDS011;11220;48.812;9.128;2024-03-07T10:14:37;1.13;;;0.90;;
22107;SDS011;11220;48.812;9.128;2024-03-07T10:17:04;1.35;;;1.00;;
22107;SDS011;11220;48.812;9.128;2024-03-07T10:19:30;0.88;;;0.70;;
22107;SDS011;11220;48.812;9.128;2024-03-07T10:21:55;1.33;;;0.90;;
22107;SDS011;11220;48.812;9.128;2024-03-07T10:24:24;0.90;;;0.75;;
22107;SDS011;11220;48.812;9.128;2024-03-07T10:26:50;1.00;;;0.90;;
22107;SDS011;11220;48.812;9.128;2024-03-07T10:29:16;0.88;;;0.70;;
22107;SDS011;11220;48.812;9.128;2024-03-07T10:31:43;1.00;;;0.90;;
22107;SDS011;11220;48.812;9.128;2024-03-07T10:34:10;1.30;;;0.90;;
22107;SDS011;11220;48.812;9.128;2024-03-07T10:36:36;0.98;;;0.88;;
22107;SDS011;11220;48.812;9.128;2024-03-07T10:39:02;0.90;;;0.80;;
22107;SDS011;11220;48.812;9.128;2024-03-07T10:41:42;1.10;;;1.00;;
22107;SDS011;11220;48.812;9.128;2024-03-07T10:44:17;1.08;;;0.80;;
22107;SDS011;11220;48.812;9.128;2024-03-07T10:46:46;1.42;;;0.90;;
22107;SDS011;11220;48.812;9.128;2024-03-07T10:49:18;1.20;;;0.90;;
22107;SDS011;11220;48.812;9.128;2024-03-07T10:51:49;0.82;;;0.80;;
22107;SDS011;11220;48.812;9.128;2024-03-07T10:57:20;0.80;;;0.80;;
22107;SDS011;11220;48.812;9.128;2024-03-07T10:59:56;1.00;;;0.90;;
22107;SDS011;11220;48.812;9.128;2024-03-07T11:02:41;0.85;;;0.85;;
22107;SDS011;11220;48.812;9.128;2024-03-07T11:05:11;0.98;;;0.80;;
22107;SDS011;11220;48.812;9.128;2024-03-07T11:07:40;1.10;;;0.90;;
22107;SDS011;11220;48.812;9.128;2024-03-07T11:10:06;0.88;;;0.80;;
22107;SDS011;11220;48.812;9.128;2024-03-07T11:12:36;0.80;;;0.80;;
22107;SDS011;11220;48.812;9.128;2024-03-07T11:15:06;0.77;;;0.77;;
22107;SDS011;11220;48.812;9.128;2024-03-07T11:17:40;1.05;;;0.90;;
22107;SDS011;11220;48.812;9.128;2024-03-07T11:22:46;2.35;;;1.23;;
22107;SDS011;11220;48.812;9.128;2024-03-07T11:25:11;0.70;;;0.70;;
22107;SDS011;11220;48.812;9.128;2024-03-07T11:27:37;0.98;;;0.88;;
22107;SDS011;11220;48.812;9.128;2024-03-07T11:30:05;1.00;;;0.90;;
22107;SDS011;11220;48.812;9.128;2024-03-07T11:32:34;0.77;;;0.60;;
22107;SDS011;11220;48.812;9.128;2024-03-07T11:35:12;0.98;;;0.82;;
22107;SDS011;11220;48.812;9.128;2024-03-07T11:37:41;1.10;;;0.95;;
22107;SDS011;11220;48.812;9.128;2024-03-07T11:42:48;1.05;;;0.80;;
22107;SDS011;11220;48.812;9.128;2024-03-07T11:45:14;1.00;;;0.90;;
22107;SDS011;11220;48.812;9.128;2024-03-07T11:47:53;1.35;;;1.00;;
22107;SDS011;11220;48.812;9.128;2024-03-07T11:50:25;1.02;;;0.90;;
22107;SDS011;11220;48.812;9.128;2024-03-07T11:52:55;1.35;;;0.80;;
22107;SDS011;11220;48.812;9.128;2024-03-07T11:55:21;1.00;;;0.90;;
22107;SDS011;11220;48.812;9.128;2024-03-07T11:57:47;1.13;;;0.90;;
22107;SDS011;11220;48.812;9.128;2024-03-07T12:00:14;1.00;;;0.90;;
22107;SDS011;11220;48.812;9.128;2024-03-07T12:02:41;0.88;;;0.88;;
22107;SDS011;11220;48.812;9.128;2024-03-07T12:05:08;1.10;;;0.85;;
22107;SDS011;11220;48.812;9.128;2024-03-07T12:07:34;1.17;;;1.08;;
22107;SDS011;11220;48.812;9.128;2024-03-07T12:10:00;1.25;;;1.00;;
22107;SDS011;11220;48.812;9.128;2024-03-07T12:12:31;1.33;;;1.00;;
22107;SDS011;11220;48.812;9.128;2024-03-07T12:14:58;1.05;;;0.98;;
22107;SDS011;11220;48.812;9.128;2024-03-07T12:17:24;1.40;;;1.20;;
22107;SDS011;11220;48.812;9.128;2024-03-07T12:19:50;1.10;;;1.00;;
22107;SDS011;11220;48.812;9.128;2024-03-07T12:22:19;1.27;;;1.10;;
22107;SDS011;11220;48.812;9.128;2024-03-07T12:25:00;1.10;;;0.90;;
22107;SDS011;11220;48.812;9.128;2024-03-07T12:27:33;1.17;;;0.93;;
22107;SDS011;11220;48.812;9.128;2024-03-07T12:29:58;1.15;;;1.02;;
22107;SDS011;11220;48.812;9.128;2024-03-07T12:32:27;1.77;;;1.00;;
22107;SDS011;11220;48.812;9.128;2024-03-07T12:34:53;1.63;;;1.10;;
22107;SDS011;11220;48.812;9.128;2024-03-07T12:37:18;1.13;;;1.02;;
22107;SDS011;11220;48.812;9.128;2024-03-07T12:39:51;0.98;;;0.80;;
22107;SDS011;11220;48.812;9.128;2024-03-07T12:42:26;1.40;;;0.95;;
22107;SDS011;11220;48.812;9.128;2024-03-07T12:44:53;1.20;;;1.00;;
22107;SDS011;11220;48.812;9.128;2024-03-07T12:47:19;1.25;;;1.15;;
22107;SDS011;11220;48.812;9.128;2024-03-07T12:49:45;0.98;;;0.82;;
22107;SDS011;11220;48.812;9.128;2024-03-07T12:52:11;1.30;;;1.20;;
22107;SDS011;11220;48.812;9.128;2024-03-07T12:54:40;1.00;;;0.88;;
22107;SDS011;11220;48.812;9.128;2024-03-07T12:57:06;1.33;;;0.90;;
22107;SDS011;11220;48.812;9.128;2024-03-07T12:59:33;1.30;;;1.10;;
22107;SDS011;11220;48.812;9.128;2024-03-07T13:02:08;1.45;;;1.27;;
22107;SDS011;11220;48.812;9.128;2024-03-07T13:04:34;1.23;;;1.13;;
22107;SDS011;11220;48.812;9.128;2024-03-07T13:07:04;0.93;;;0.80;;
22107;SDS011;11220;48.812;9.128;2024-03-07T13:09:33;1.10;;;1.00;;
22107;SDS011;11220;48.812;9.128;2024-03-07T13:11:59;1.27;;;1.00;;
22107;SDS011;11220;48.812;9.128;2024-03-07T13:14:26;1.33;;;1.23;;
22107;SDS011;11220;48.812;9.128;2024-03-07T13:16:57;1.55;;;1.15;;
22107;SDS011;11220;48.812;9.128;2024-03-07T13:19:27;0.90;;;0.90;;
22107;SDS011;11220;48.812;9.128;2024-03-07T13:21:53;1.10;;;1.00;;
22107;SDS011;11220;48.812;9.128;2024-03-07T13:24:20;1.15;;;1.05;;
22107;SDS011;11220;48.812;9.128;2024-03-07T13:26:46;1.45;;;1.10;;
22107;SDS011;11220;48.812;9.128;2024-03-07T13:29:13;1.50;;;1.20;;
22107;SDS011;11220;48.812;9.128;2024-03-07T13:31:39;1.00;;;0.90;;
22107;SDS011;11220;48.812;9.128;2024-03-07T13:34:07;1.23;;;1.13;;
22107;SDS011;11220;48.812;9.128;2024-03-07T13:36:38;1.15;;;1.00;;
22107;SDS011;11220;48.812;9.128;2024-03-07T13:39:05;1.17;;;0.90;;
22107;SDS011;11220;48.812;9.128;2024-03-07T13:41:35;1.15;;;1.05;;
22107;SDS011;11220;48.812;9.128;2024-03-07T13:44:01;1.45;;;1.10;;
22107;SDS011;11220;48.812;9.128;2024-03-07T13:46:28;1.67;;;1.10;;
22107;SDS011;11220;48.812;9.128;2024-03-07T13:48:54;1.50;;;1.20;;
22107;SDS011;11220;48.812;9.128;2024-03-07T13:51:19;1.17;;;1.08;;
22107;SDS011;11220;48.812;9.128;2024-03-07T13:53:45;1.42;;;1.20;;
22107;SDS011;11220;48.812;9.128;2024-03-07T13:56:28;1.00;;;0.90;;
22107;SDS011;11220;48.812;9.128;2024-03-07T14:07:32;1.30;;;1.10;;
22107;SDS011;11220;48.812;9.128;2024-03-07T14:10:21;1.80;;;1.27;;
22107;SDS011;11220;48.812;9.128;2024-03-07T14:13:18;1.55;;;1.23;;
22107;SDS011;11220;48.812;9.128;2024-03-07T14:19:02;1.30;;;1.20;;
22107;SDS011;11220;48.812;9.128;2024-03-07T14:21:48;1.05;;;0.95;;
22107;SDS011;11220;48.812;9.128;2024-03-07T14:27:33;1.35;;;1.10;;
22107;SDS011;11220;48.812;9.128;2024-03-07T14:30:21;1.15;;;1.05;;
22107;SDS011;11220;48.812;9.128;2024-03-07T14:33:05;1.40;;;1.00;;
22107;SDS011;11220;48.812;9.128;2024-03-07T14:40:46;2.47;;;1.55;;
22107;SDS011;11220;48.812;9.128;2024-03-07T14:43:14;3.00;;;2.08;;
22107;SDS011;11220;48.812;9.128;2024-03-07T14:45:42;3.15;;;2.28;;
22107;SDS011;11220;48.812;9.128;2024-03-07T14:48:08;3.45;;;2.58;;
22107;SDS011;11220;48.812;9.128;2024-03-07T14:50:37;3.45;;;2.78;;
22107;SDS011;11220;48.812;9.128;2024-03-07T14:53:05;4.15;;;2.60;;
22107;SDS011;11220;48.812;9.128;2024-03-07T14:55:31;3.95;;;2.95;;
22107;SDS011;11220;48.812;9.128;2024-03-07T14:57:58;4.07;;;2.90;;
22107;SDS011;11220;48.812;9.128;2024-03-07T15:00:24;4.10;;;3.20;;
22107;SDS011;11220;48.812;9.128;2024-03-07T15:02:53;4.67;;;3.40;;
22107;SDS011;11220;48.812;9.128;2024-03-07T15:05:22;5.22;;;3.38;;
22107;SDS011;11220;48.812;9.128;2024-03-07T15:07:49;5.45;;;3.33;;
22107;SDS011;11220;48.812;9.128;2024-03-07T15:10:28;6.32;;;3.55;;
22107;SDS011;11220;48.812;9.128;2024-03-07T15:12:57;6.68;;;4.10;;
22107;SDS011;11220;48.812;9.128;2024-03-07T15:15:22;9.40;;;4.30;;
22107;SDS011;11220;48.812;9.128;2024-03-07T15:17:55;5.88;;;4.07;;
22107;SDS011;11220;48.812;9.128;2024-03-07T15:20:21;6.35;;;3.92;;
22107;SDS011;11220;48.812;9.128;2024-03-07T15:22:54;6.03;;;3.90;;